Latest Weather Observations for Coonamble

IDN60801

Issued at 10:35 am EDT Wednesday 22 October 2014 (issued every 30 minutes, with the page automatically refreshed every 10 minutes)

About weather observations | Map of weather stations | Latest weather observations for NSW | Other Formats
Station Details ID: 051161 Name: COONAMBLE AIRPORT AWS Lat: -30.98 Lon: 148.38 Height: 181.3 m
Data from the previous 72 hours. | See also: Recent months at Coonamble
Date/Time
EDT
Temp
°C
App
Temp
°C
Dew
Point
Rel
Hum
%
Delta-T
°C
Wind Press
QNH
hPa
Press
MSL
hPa
Rain
since 9 am
mm
Dir
 
Spd
km/h
Gust
km/h
Spd
kts
Gust
kts
22/10:30am 23.1 18.4 9.1 41 7.5 N 24 33 13 18 1024.5 1024.0 0.0
22/10:00am 22.2 16.8 9.4 44 6.9 NNE 28 37 15 20 1024.5 1024.0 0.0
22/09:30am 21.1 16.3 9.0 46 6.5 NNE 24 39 13 21 1024.7 1024.2 0.0
22/09:00am 19.8 14.1 8.5 48 5.9 NNE 28 39 15 21 1024.8 1024.3 0.0
22/08:30am 19.4 14.6 9.0 51 5.5 NE 24 35 13 19 1024.7 1024.2 0.0
22/08:00am 17.9 12.9 8.2 53 5.0 ENE 24 33 13 18 1024.5 1024.0 0.0
22/07:30am 16.5 11.9 8.2 58 4.2 ENE 22 30 12 16 1024.4 1023.9 0.0
22/07:00am 15.2 11.6 8.2 63 3.5 ENE 17 22 9 12 1024.1 1023.6 0.0
22/06:30am 14.8 10.8 8.1 64 3.4 E 19 24 10 13 1023.8 1023.3 0.0
22/06:00am 15.1 10.9 8.1 63 3.5 E 20 24 11 13 1023.4 1022.9 0.0
22/05:30am 15.4 11.1 7.9 61 3.8 ENE 20 32 11 17 1023.2 1022.7 0.0
22/05:00am 15.8 11.2 8.1 60 3.9 ENE 22 32 12 17 1022.9 1022.5 0.0
22/04:30am 16.0 11.4 8.0 59 4.1 ENE 22 32 12 17 1022.8 1022.4 0.0
22/04:00am 16.2 11.5 7.9 58 4.2 ENE 22 30 12 16 1023.0 1022.6 0.0
22/03:30am 16.7 11.3 7.9 56 4.5 E 26 35 14 19 1023.0 1022.6 0.0
22/03:00am 17.0 11.9 7.6 54 4.8 E 24 32 13 17 1023.0 1022.6 0.0
22/02:30am 17.3 12.5 7.4 52 5.0 E 22 32 12 17 1023.0 1022.6 0.0
22/02:00am 17.8 12.6 7.2 50 5.3 E 24 33 13 18 1023.2 1022.7 0.0
22/01:30am 18.4 12.9 7.5 49 5.6 E 26 37 14 20 1023.5 1023.0 0.0
22/01:00am 18.9 13.4 7.4 47 5.9 E 26 39 14 21 1023.7 1023.2 0.0
22/12:30am 19.4 15.0 7.5 46 6.1 E 20 30 11 16 1024.1 1023.6 0.0
22/12:00am 20.2 15.0 7.2 43 6.7 E 24 35 13 19 1024.3 1023.8 0.0
 
Date/Time
EDT
Temp
°C
App
Temp
°C
Dew
Point
Rel
Hum
%
Delta-T
°C
Wind Press
QNH
hPa
Press
MSL
hPa
Rain
since 9 am
mm
Dir
 
Spd
km/h
Gust
km/h
Spd
kts
Gust
kts
21/11:30pm 21.0 16.3 7.6 42 7.0 E 22 30 12 16 1024.2 1023.7 0.0
21/11:00pm 21.8 17.4 7.6 40 7.4 E 20 28 11 15 1024.0 1023.5 0.0
21/10:30pm 22.8 17.7 7.8 38 7.9 E 24 33 13 18 1023.9 1023.4 0.0
21/10:00pm 23.6 18.9 7.7 36 8.4 E 22 32 12 17 1023.7 1023.2 0.0
21/09:30pm 24.1 20.3 7.7 35 8.7 E 17 24 9 13 1023.4 1022.9 0.0
21/09:00pm 23.4 19.6 9.0 40 7.8 SSE 19 22 10 12 1023.2 1022.7 0.0
21/08:30pm 22.9 20.7 7.8 38 8.0 E 9 11 5 6 1022.6 1022.2 0.0
21/08:00pm 25.0 22.7 7.6 33 9.2 ESE 9 13 5 7 1022.3 1021.9 0.0
21/07:30pm 26.2 24.0 7.7 31 9.9 ESE 9 11 5 6 1022.1 1021.7 0.0
21/07:00pm 28.0 26.2 7.8 28 10.9 E 7 9 4 5 1021.9 1021.5 0.0
21/06:30pm 29.1 27.3 7.1 25 11.9 E 6 9 3 5 1021.8 1021.4 0.0
21/06:00pm 29.6 27.8 8.1 26 11.8 NNE 7 11 4 6 1021.7 1021.3 0.0
21/05:30pm 30.5 29.0 8.3 25 12.3 WNW 6 13 3 7 1021.8 1021.4 0.0
21/05:00pm 30.0 28.5 8.4 26 11.9 N 6 9 3 5 1021.9 1021.5 0.0
21/04:30pm 29.7 28.1 8.7 27 11.7 ENE 7 17 4 9 1022.0 1021.6 0.0
21/04:00pm 29.5 27.3 8.0 26 11.8 E 9 15 5 8 1022.2 1021.8 0.0
21/03:30pm 29.3 26.8 8.4 27 11.6 NE 11 20 6 11 1022.6 1022.2 0.0
21/03:00pm 29.6 27.0 9.2 28 11.4 NE 13 24 7 13 1023.0 1022.6 0.0
21/02:30pm 28.5 25.9 9.2 30 10.8 NNE 13 24 7 13 1023.7 1023.2 0.0
21/02:00pm 27.6 24.0 8.5 30 10.4 N 17 24 9 13 1024.2 1023.7 0.0
21/01:30pm 27.8 25.5 9.1 31 10.4 N 11 20 6 11 1024.8 1024.3 0.0
21/01:00pm 27.8 24.1 10.1 33 9.9 ENE 20 28 11 15 1025.4 1024.9 0.0
21/12:30pm 26.4 22.0 8.8 33 9.7 NNE 22 32 12 17 1026.0 1025.5 0.0
21/12:00pm 25.7 22.2 8.7 34 9.2 NNE 17 28 9 15 1026.3 1025.9 0.0
21/11:30am 25.4 21.6 9.7 37 8.7 NNE 20 32 11 17 1026.7 1026.3 0.0
21/11:00am 24.0 20.0 9.2 39 8.0 NNE 20 32 11 17 1027.1 1026.7 0.0
21/10:30am 23.3 19.5 9.7 42 7.5 NNE 20 32 11 17 1027.4 1027.0 0.0
21/10:00am 22.4 17.9 9.9 45 6.8 NE 24 35 13 19 1027.4 1027.0 0.0
21/09:30am 21.7 17.2 9.9 47 6.4 ENE 24 32 13 17 1027.4 1027.0 0.0
21/09:00am 20.7 15.9 10.2 51 5.7 ENE 26 33 14 18 1027.3 1026.9 0.0
21/08:30am 19.2 13.9 9.9 55 5.0 E 28 39 15 21 1027.1 1026.7 0.0
21/08:00am 18.4 13.2 10.3 59 4.3 E 28 41 15 22 1026.8 1026.4 0.0
21/07:30am 17.4 13.8 10.5 64 3.7 E 20 28 11 15 1026.5 1026.1 0.0
21/07:00am 16.3 12.6 10.2 67 3.2 ENE 20 30 11 16 1026.0 1025.5 0.0
21/06:30am 15.9 11.8 10.2 69 3.0 E 22 32 12 17 1025.4 1024.9 0.0
21/06:00am 16.1 12.0 10.2 68 3.1 ENE 22 32 12 17 1025.0 1024.5 0.0
21/05:30am 16.3 12.6 10.2 67 3.2 E 20 32 11 17 1024.6 1024.1 0.0
21/05:00am 16.6 12.5 10.0 65 3.5 E 22 30 12 16 1024.4 1023.9 0.0
21/04:30am 17.0 12.1 9.9 63 3.8 E 26 37 14 20 1024.0 1023.5 0.0
21/04:00am 17.5 12.2 9.9 61 4.0 ENE 28 39 15 21 1023.8 1023.3 0.0
21/03:30am 17.7 12.8 9.8 60 4.2 E 26 35 14 19 1023.7 1023.2 0.0
21/03:00am 18.1 12.8 9.7 58 4.5 E 28 37 15 20 1023.6 1023.1 0.0
21/02:30am 18.5 13.1 9.6 56 4.7 E 28 41 15 22 1023.7 1023.2 0.0
21/02:00am 19.0 13.2 9.5 54 5.0 ENE 30 41 16 22 1023.7 1023.2 0.0
21/01:30am 19.3 14.3 9.5 53 5.2 ENE 26 37 14 20 1023.3 1022.8 0.0
21/01:00am 19.7 14.2 9.3 51 5.5 E 28 39 15 21 1023.5 1023.0 0.0
21/12:30am 20.2 15.0 8.8 48 6.0 E 26 39 14 21 1023.7 1023.2 0.0
21/12:00am 20.7 15.7 8.0 44 6.6 E 24 35 13 19 1023.9 1023.4 0.0
 
Date/Time
EDT
Temp
°C
App
Temp
°C
Dew
Point
Rel
Hum
%
Delta-T
°C
Wind Press
QNH
hPa
Press
MSL
hPa
Rain
since 9 am
mm
Dir
 
Spd
km/h
Gust
km/h
Spd
kts
Gust
kts
20/11:30pm 21.2 16.7 7.1 40 7.3 E 20 28 11 15 1023.9 1023.4 0.0
20/11:00pm 22.3 17.3 6.5 36 8.1 E 22 32 12 17 1023.8 1023.3 0.0
20/10:30pm 23.3 17.7 7.0 35 8.5 ENE 26 35 14 19 1023.5 1023.0 0.0
20/10:00pm 24.4 19.8 8.0 35 8.7 E 22 32 12 17 1023.0 1022.6 0.0
20/09:30pm 25.6 21.8 7.7 32 9.6 E 17 22 9 12 1022.6 1022.2 0.0
20/09:00pm 26.2 22.8 7.7 31 9.9 E 15 22 8 12 1022.0 1021.6 0.0
20/08:30pm 27.3 23.9 7.7 29 10.6 E 15 26 8 14 1021.6 1021.2 0.0
20/08:00pm 28.4 23.3 7.6 27 11.3 ESE 24 35 13 19 1020.9 1020.4 0.0
20/07:30pm 27.8 25.0 2.1 19 12.6 SSW 6 9 3 5 1020.3 1019.8 0.0
20/07:00pm 29.9 26.4 1.4 16 14.0 SSW 9 9 5 5 1020.0 1019.5 0.0
20/06:30pm 31.6 29.0 0.9 14 15.2 S 4 9 2 5 1019.9 1019.4 0.0
20/06:00pm 32.4 29.2 0.5 13 15.7 SSE 7 11 4 6 1019.9 1019.4 0.0
20/05:30pm 32.5 29.5 0.6 13 15.8 W 6 11 3 6 1019.9 1019.4 0.0
20/05:00pm 32.1 29.0 0.2 13 15.6 S 6 11 3 6 1020.0 1019.5 0.0
20/04:30pm 33.4 29.3 0.1 12 16.4 S 11 19 6 10 1020.1 1019.6 0.0
20/04:00pm 33.3 29.4 1.2 13 16.1 NW 11 19 6 10 1020.3 1019.8 0.0
20/03:30pm 33.4 30.6 2.3 14 15.9 ESE 6 11 3 6 1020.7 1020.2 0.0
20/03:00pm 32.7 28.9 1.7 14 15.6 SW 11 17 6 9 1021.2 1020.7 0.0
20/02:30pm 32.3 28.6 2.4 15 15.2 S 11 19 6 10 1021.7 1021.3 0.0
20/02:00pm 33.1 29.9 3.0 15 15.5 WNW 9 20 5 11 1022.2 1021.8 0.0
20/01:30pm 32.4 29.5 2.5 15 15.3 NNW 7 13 4 7 1022.7 1022.3 0.0
20/01:00pm 31.7 28.1 2.8 16 14.7 E 11 17 6 9 1023.2 1022.7 0.0
20/12:30pm 31.1 27.9 3.2 17 14.3 N 9 19 5 10 1023.6 1023.1 0.0
20/12:00pm 30.0 26.7 2.3 17 13.8 E 9 13 5 7 1024.2 1023.7 0.0
20/11:30am 30.6 27.7 4.4 19 13.6 E 9 15 5 8 1024.6 1024.1 0.0
20/11:00am 29.4 26.6 3.4 19 13.2 N 7 11 4 6 1024.8 1024.3 0.0
20/10:30am 29.0 26.5 4.5 21 12.7 N 7 11 4 6 1025.1 1024.6 0.0
20/10:00am 28.1 25.3 5.0 23 11.9 NNE 9 15 5 8 1025.1 1024.6 0.0
20/09:30am 26.8 24.0 5.1 25 11.2 NNE 9 15 5 8 1025.0 1024.5 0.0
20/09:00am 25.3 22.1 5.0 27 10.3 NNE 11 15 6 8 1024.7 1024.2 0.0
20/08:30am 23.3 20.1 5.2 31 9.1 NE 11 17 6 9 1024.6 1024.1 0.0
20/08:00am 20.3 17.4 6.3 40 7.0 ENE 11 13 6 7 1024.4 1023.9 0.0
20/07:30am 17.1 14.6 6.6 50 5.2 E 9 11 5 6 1024.1 1023.6 0.0
20/07:00am 14.5 11.1 6.1 57 4.0 E 13 13 7 7 1023.6 1023.1 0.0
20/06:30am 13.4 10.7 5.8 60 3.6 E 9 13 5 7 1023.4 1022.9 0.0
20/06:00am 13.3 11.0 5.5 59 3.7 E 7 11 4 6 1022.8 1022.4 0.0
20/05:30am 13.9 11.7 5.5 57 4.0 E 6 7 3 4 1022.6 1022.2 0.0
20/05:00am 13.7 10.9 5.1 56 4.0 E 9 11 5 6 1022.3 1021.9 0.0
20/04:30am 13.4 10.5 4.8 56 4.0 E 9 13 5 7 1022.2 1021.8 0.0
20/04:00am 14.3 11.3 4.0 50 4.7 E 9 13 5 7 1022.2 1021.8 0.0
20/03:30am 15.1 12.1 3.9 47 5.2 E 9 11 5 6 1022.2 1021.8 0.0
20/03:00am 14.2 11.6 4.2 51 4.6 E 7 11 4 6 1022.5 1022.1 0.0
20/02:30am 14.9 12.4 3.7 47 5.2 E 6 9 3 5 1022.6 1022.2 0.0
20/02:00am 15.8 14.4 3.6 44 5.6 CALM 0 0 0 0 1022.8 1022.4 0.0
20/01:30am 16.3 13.1 3.0 41 6.1 E 9 9 5 5 1023.2 1022.7 0.0
20/01:00am 16.9 14.2 3.6 41 6.2 E 7 9 4 5 1023.4 1022.9 0.0
20/12:30am 15.8 13.3 3.9 45 5.6 E 6 7 3 4 1023.6 1023.1 0.0
20/12:00am 16.4 14.0 4.4 45 5.7 E 6 9 3 5 1023.6 1023.1 0.0
 
Date/Time
EDT
Temp
°C
App
Temp
°C
Dew
Point
Rel
Hum
%
Delta-T
°C
Wind Press
QNH
hPa
Press
MSL
hPa
Rain
since 9 am
mm
Dir
 
Spd
km/h
Gust
km/h
Spd
kts
Gust
kts
19/11:30pm 17.4 15.0 4.4 42 6.2 ENE 6 11 3 6 1023.6 1023.1 0.0
19/11:00pm 18.1 16.1 4.3 40 6.6 E 4 7 2 4 1023.4 1022.9 0.0
19/10:30pm 18.9 17.6 4.3 38 7.0 CALM 0 2 0 1 1023.5 1023.0 0.0
19/10:00pm 18.7 16.3 4.1 38 7.0 E 6 6 3 3 1023.5 1023.0 0.0
19/09:30pm 19.7 16.7 4.2 36 7.5 E 9 9 5 5 1023.4 1022.9 0.0
19/09:00pm 19.9 17.0 4.4 36 7.5 ENE 9 9 5 5 1022.9 1022.5 0.0
19/08:30pm 21.9 20.7 4.5 32 8.6 CALM 0 0 0 0 1022.7 1022.3 0.0
19/08:00pm 22.8 21.5 4.3 30 9.1 CALM 0 0 0 0 1022.4 1022.0 0.0
19/07:30pm 24.0 21.5 3.9 27 10.0 E 6 6 3 3 1022.1 1021.7 0.0
19/07:00pm 27.3 24.6 2.4 20 12.2 E 6 7 3 4 1021.7 1021.3 0.0
19/06:30pm 28.5 25.5 1.9 18 13.1 E 7 11 4 6 1021.5 1021.1 0.0
19/06:00pm 29.4 26.0 1.8 17 13.6 ENE 9 15 5 8 1021.5 1021.1 0.0
19/05:30pm 29.9 27.1 2.2 17 13.8 WNW 6 9 3 5 1021.5 1021.1 0.0
19/05:00pm 29.7 26.3 2.1 17 13.7 ENE 9 20 5 11 1021.3 1020.8 0.0
19/04:30pm 29.3 26.0 2.5 18 13.4 ENE 9 19 5 10 1021.5 1021.1 0.0
19/04:00pm 29.8 27.1 3.7 19 13.3 NW 7 13 4 7 1021.8 1021.4 0.0
19/03:30pm 29.4 25.5 3.4 19 13.2 N 13 17 7 9 1022.1 1021.7 0.0
19/03:00pm 29.3 25.5 4.0 20 12.9 NNE 13 24 7 13 1022.5 1022.1 0.0
19/02:30pm 29.1 25.7 3.9 20 12.9 N 11 19 6 10 1022.9 1022.5 0.0
19/02:00pm 28.4 23.9 4.0 21 12.4 N 17 26 9 14 1023.6 1023.1 0.0
19/01:30pm 27.7 23.7 4.7 23 11.8 N 15 26 8 14 1024.2 1023.7 0.0
19/01:00pm 27.7 24.9 5.3 24 11.6 N 9 19 5 10 1024.6 1024.1 0.0
19/12:30pm 27.0 23.3 6.4 27 10.9 N 15 28 8 15 1025.2 1024.7 0.0
19/12:00pm 26.1 22.2 7.2 30 10.0 N 17 24 9 13 1025.7 1025.2 0.0
19/11:30am 25.5 22.2 8.1 33 9.4 N 15 24 8 13 1026.4 1026.0 0.0
19/11:00am 24.6 20.8 9.0 37 8.5 N 19 30 10 16 1026.9 1026.5 0.0

Other Formats:

Comma delimited format used in spreadsheet applications
http://www.bom.gov.au/fwo/IDN60801/IDN60801.95718.axf

JavaScript Object Notation format (JSON) in row-major order
http://www.bom.gov.au/fwo/IDN60801/IDN60801.95718.json